Orbital elements of COSMOS 970 DEB
| Launched | 20 December 1977 |
| Flight ended | – |
| Launch site | Tyuratam Missile and Space Center, Kazakhstan (Also known as Baikonur Cosmodrome) |
| Owner | Commonwealth of Independent States (former USSR) |
| NORAD ID | 12865 |
| Date fetched |
Epoch osculation |
Inc. [°] |
Ecc. | RA asc node [hr] |
Arg Peri. [°] |
Mean anom [°] |
Mean motion [rev/day] |
Abs. mag |
| Date fetched |
Epoch osculation |
Inc. [°] |
Ecc. | RA asc node [hr] |
Arg Peri. [°] |
Mean anom [°] |
Mean motion [rev/day] |
Abs. mag |
| 2026 May 03 17:57 | 2026 Apr 29 19:43:37 | 65.7699 | 0.00574 | 19.3343 | 65.7912 | 48.1147 | 13.75282 | – |
| 2026 May 02 17:57 | 2026 Apr 29 19:43:37 | 65.7699 | 0.00574 | 19.3343 | 65.7912 | 48.1147 | 13.75282 | – |
| 2026 May 01 17:56 | 2026 Apr 29 19:43:37 | 65.7699 | 0.00574 | 19.3343 | 65.7912 | 48.1147 | 13.75282 | – |
| 2026 Apr 30 17:56 | 2026 Apr 29 19:43:37 | 65.7699 | 0.00574 | 19.3343 | 65.7912 | 48.1147 | 13.75282 | – |
| 2026 Apr 29 17:57 | 2026 Apr 24 11:54:05 | 65.7703 | 0.00574 | 20.2142 | 68.5663 | 48.1147 | 13.75282 | – |
| 2026 Apr 28 17:56 | 2026 Apr 24 11:54:05 | 65.7703 | 0.00574 | 20.2142 | 68.5663 | 48.1147 | 13.75282 | – |
| 2026 Apr 27 17:58 | 2026 Apr 24 11:54:05 | 65.7703 | 0.00574 | 20.2142 | 68.5663 | 48.1147 | 13.75282 | – |
| 2026 Apr 26 17:58 | 2026 Apr 24 11:54:05 | 65.7703 | 0.00574 | 20.2142 | 68.5663 | 48.1147 | 13.75282 | – |
| 2026 Apr 25 17:58 | 2026 Apr 24 11:54:05 | 65.7703 | 0.00574 | 20.2142 | 68.5663 | 48.1147 | 13.75282 | – |
| 2026 Apr 24 17:59 | 2026 Apr 24 11:54:05 | 65.7703 | 0.00574 | 20.2142 | 68.5663 | 48.1147 | 13.75282 | – |
| 2026 Apr 23 17:57 | 2026 Apr 19 13:13:39 | 65.7708 | 0.00572 | 21.0310 | 71.1022 | 48.1147 | 13.75282 | – |
| 2026 Apr 22 17:57 | 2026 Apr 19 13:13:39 | 65.7708 | 0.00572 | 21.0310 | 71.1022 | 48.1147 | 13.75282 | – |
| 2026 Apr 21 17:57 | 2026 Apr 19 13:13:39 | 65.7708 | 0.00572 | 21.0310 | 71.1022 | 48.1147 | 13.75282 | – |
| 2026 Apr 20 17:57 | 2026 Apr 19 13:13:39 | 65.7708 | 0.00572 | 21.0310 | 71.1022 | 48.1147 | 13.75282 | – |
| 2026 Apr 19 17:58 | 2026 Apr 19 13:13:39 | 65.7708 | 0.00572 | 21.0310 | 71.1022 | 48.1147 | 13.75282 | – |
| 2026 Apr 18 17:56 | 2026 Apr 12 15:23:37 | 65.7717 | 0.00569 | 22.1724 | 74.6737 | 48.1147 | 13.75282 | – |
| 2026 Apr 16 17:57 | 2026 Apr 12 15:23:37 | 65.7717 | 0.00569 | 22.1724 | 74.6737 | 48.1147 | 13.75282 | – |
| 2026 Apr 14 17:57 | 2026 Apr 12 15:23:37 | 65.7717 | 0.00569 | 22.1724 | 74.6737 | 48.1147 | 13.75282 | – |
| 2026 Apr 13 17:57 | 2026 Apr 12 15:23:37 | 65.7717 | 0.00569 | 22.1724 | 74.6737 | 48.1147 | 13.75282 | – |
| 2026 Apr 12 17:57 | 2026 Apr 08 15:25:28 | 65.7721 | 0.00566 | 22.8329 | 76.7530 | 48.1147 | 13.75282 | – |
| 2026 Apr 11 17:57 | 2026 Apr 08 15:25:28 | 65.7721 | 0.00566 | 22.8329 | 76.7530 | 48.1147 | 13.75282 | – |
| 2026 Apr 10 17:58 | 2026 Apr 08 15:25:28 | 65.7721 | 0.00566 | 22.8329 | 76.7530 | 48.1147 | 13.75282 | – |
| 2026 Apr 09 18:01 | 2026 Apr 08 15:25:28 | 65.7721 | 0.00566 | 22.8329 | 76.7530 | 48.1147 | 13.75282 | – |
| 2026 Apr 08 17:57 | 2026 Apr 08 15:25:28 | 65.7721 | 0.00566 | 22.8329 | 76.7530 | 48.1147 | 13.75282 | – |
| 2026 Apr 07 17:57 | 2026 Apr 02 00:32:39 | 65.7727 | 0.00561 | 23.9263 | 80.2772 | 48.1147 | 13.75282 | – |
| 2026 Apr 06 17:57 | 2026 Apr 02 00:32:39 | 65.7727 | 0.00561 | 23.9263 | 80.2772 | 48.1147 | 13.75282 | – |